sensor_id;sensor_type;location;lat;lon;timestamp;pressure;altitude;pressure_sealevel;temperature;humidity
8320;BME280;4197;42.130;24.746;2023-03-20T00:02:06;99981.94;;;6.04;100.00
8320;BME280;4197;42.130;24.746;2023-03-20T00:04:35;99973.53;;;5.97;100.00
8320;BME280;4197;42.130;24.746;2023-03-20T00:07:03;99970.94;;;5.92;100.00
8320;BME280;4197;42.130;24.746;2023-03-20T00:09:39;99969.66;;;5.89;100.00
8320;BME280;4197;42.130;24.746;2023-03-20T00:12:10;99962.50;;;5.85;100.00
8320;BME280;4197;42.130;24.746;2023-03-20T00:14:41;99962.03;;;5.82;100.00
8320;BME280;4197;42.130;24.746;2023-03-20T00:17:10;99961.06;;;5.78;100.00
8320;BME280;4197;42.130;24.746;2023-03-20T00:19:44;99957.06;;;5.76;100.00
8320;BME280;4197;42.130;24.746;2023-03-20T00:22:12;99954.72;;;5.74;100.00
8320;BME280;4197;42.130;24.746;2023-03-20T00:24:42;99947.25;;;5.71;100.00
8320;BME280;4197;42.130;24.746;2023-03-20T00:27:13;99949.28;;;5.66;100.00
8320;BME280;4197;42.130;24.746;2023-03-20T00:29:42;99951.31;;;5.60;100.00
8320;BME280;4197;42.130;24.746;2023-03-20T00:32:12;99954.31;;;5.58;100.00
8320;BME280;4197;42.130;24.746;2023-03-20T00:34:41;99948.13;;;5.58;100.00
8320;BME280;4197;42.130;24.746;2023-03-20T00:37:10;99944.94;;;5.56;100.00
8320;BME280;4197;42.130;24.746;2023-03-20T00:39:39;99937.19;;;5.54;100.00
8320;BME280;4197;42.130;24.746;2023-03-20T00:42:16;99939.69;;;5.51;100.00
8320;BME280;4197;42.130;24.746;2023-03-20T00:44:49;99938.41;;;5.48;100.00
8320;BME280;4197;42.130;24.746;2023-03-20T00:47:21;99931.94;;;5.49;100.00
8320;BME280;4197;42.130;24.746;2023-03-20T00:49:52;99937.19;;;5.54;100.00
8320;BME280;4197;42.130;24.746;2023-03-20T00:52:21;99938.00;;;5.55;100.00
8320;BME280;4197;42.130;24.746;2023-03-20T00:54:49;99931.19;;;5.57;100.00
8320;BME280;4197;42.130;24.746;2023-03-20T00:57:21;99929.16;;;5.63;100.00
8320;BME280;4197;42.130;24.746;2023-03-20T00:59:54;99930.25;;;5.62;100.00
8320;BME280;4197;42.130;24.746;2023-03-20T01:02:26;99926.00;;;5.61;100.00
8320;BME280;4197;42.130;24.746;2023-03-20T01:04:57;99929.91;;;5.55;100.00
8320;BME280;4197;42.130;24.746;2023-03-20T01:07:26;99932.13;;;5.53;100.00
8320;BME280;4197;42.130;24.746;2023-03-20T01:09:54;99929.53;;;5.48;100.00
8320;BME280;4197;42.130;24.746;2023-03-20T01:12:24;99925.69;;;5.40;100.00
8320;BME280;4197;42.130;24.746;2023-03-20T01:14:55;99925.03;;;5.34;100.00
8320;BME280;4197;42.130;24.746;2023-03-20T01:17:25;99925.97;;;5.30;100.00
8320;BME280;4197;42.130;24.746;2023-03-20T01:19:53;99926.44;;;5.32;100.00
8320;BME280;4197;42.130;24.746;2023-03-20T01:22:22;99919.81;;;5.29;100.00
8320;BME280;4197;42.130;24.746;2023-03-20T01:24:50;99916.91;;;5.26;100.00
8320;BME280;4197;42.130;24.746;2023-03-20T01:27:19;99914.34;;;5.21;100.00
8320;BME280;4197;42.130;24.746;2023-03-20T01:29:49;99905.63;;;5.15;100.00
8320;BME280;4197;42.130;24.746;2023-03-20T01:32:18;99910.03;;;5.11;100.00
8320;BME280;4197;42.130;24.746;2023-03-20T01:34:46;99912.81;;;5.06;100.00
8320;BME280;4197;42.130;24.746;2023-03-20T01:37:17;99908.06;;;5.03;100.00
8320;BME280;4197;42.130;24.746;2023-03-20T01:39:50;99907.56;;;5.01;100.00
8320;BME280;4197;42.130;24.746;2023-03-20T01:42:18;99911.97;;;4.97;100.00
8320;BME280;4197;42.130;24.746;2023-03-20T01:44:47;99905.31;;;4.94;100.00
8320;BME280;4197;42.130;24.746;2023-03-20T01:47:19;99910.19;;;4.92;100.00
8320;BME280;4197;42.130;24.746;2023-03-20T01:50:20;99908.13;;;4.89;100.00
8320;BME280;4197;42.130;24.746;2023-03-20T01:52:57;99901.75;;;4.85;100.00
8320;BME280;4197;42.130;24.746;2023-03-20T01:55:28;99896.09;;;4.86;100.00
8320;BME280;4197;42.130;24.746;2023-03-20T01:58:00;99900.66;;;4.86;100.00
8320;BME280;4197;42.130;24.746;2023-03-20T02:00:31;99897.19;;;4.85;100.00
8320;BME280;4197;42.130;24.746;2023-03-20T02:03:01;99897.19;;;4.85;100.00
8320;BME280;4197;42.130;24.746;2023-03-20T02:05:30;99903.19;;;4.82;100.00
8320;BME280;4197;42.130;24.746;2023-03-20T02:08:17;99894.31;;;4.82;100.00
8320;BME280;4197;42.130;24.746;2023-03-20T02:10:48;99908.72;;;4.86;100.00
8320;BME280;4197;42.130;24.746;2023-03-20T02:13:17;99910.03;;;4.88;100.00
8320;BME280;4197;42.130;24.746;2023-03-20T02:15:57;99901.75;;;4.85;100.00
8320;BME280;4197;42.130;24.746;2023-03-20T02:18:27;99894.63;;;4.80;100.00
8320;BME280;4197;42.130;24.746;2023-03-20T02:24:18;99902.00;;;4.75;100.00
8320;BME280;4197;42.130;24.746;2023-03-20T02:27:03;99898.31;;;4.70;100.00
8320;BME280;4197;42.130;24.746;2023-03-20T02:29:51;99894.06;;;4.69;100.00
8320;BME280;4197;42.130;24.746;2023-03-20T02:36:00;99898.63;;;4.69;100.00
8320;BME280;4197;42.130;24.746;2023-03-20T02:38:44;99889.59;;;4.65;100.00
8320;BME280;4197;42.130;24.746;2023-03-20T02:41:22;99894.28;;;4.59;100.00
8320;BME280;4197;42.130;24.746;2023-03-20T02:44:00;99883.34;;;4.56;100.00
8320;BME280;4197;42.130;24.746;2023-03-20T02:46:40;99880.97;;;4.54;100.00
8320;BME280;4197;42.130;24.746;2023-03-20T02:49:17;99882.56;;;4.55;100.00
8320;BME280;4197;42.130;24.746;2023-03-20T02:51:57;99884.81;;;4.62;100.00
8320;BME280;4197;42.130;24.746;2023-03-20T02:54:35;99884.31;;;4.60;100.00
8320;BME280;4197;42.130;24.746;2023-03-20T02:57:08;99881.78;;;4.55;100.00
8320;BME280;4197;42.130;24.746;2023-03-20T02:59:42;99882.16;;;4.48;100.00
8320;BME280;4197;42.130;24.746;2023-03-20T03:02:14;99881.50;;;4.42;100.00
8320;BME280;4197;42.130;24.746;2023-03-20T03:04:50;99879.13;;;4.41;100.00
8320;BME280;4197;42.130;24.746;2023-03-20T03:07:23;99881.31;;;4.39;100.00
8320;BME280;4197;42.130;24.746;2023-03-20T03:09:55;99875.94;;;4.39;100.00
8320;BME280;4197;42.130;24.746;2023-03-20T03:12:30;99881.59;;;4.37;100.00
8320;BME280;4197;42.130;24.746;2023-03-20T03:15:00;99877.34;;;4.36;100.00
8320;BME280;4197;42.130;24.746;2023-03-20T03:17:32;99880.22;;;4.26;100.00
8320;BME280;4197;42.130;24.746;2023-03-20T03:20:06;99880.66;;;4.19;100.00
8320;BME280;4197;42.130;24.746;2023-03-20T03:22:36;99873.81;;;4.13;100.00
8320;BME280;4197;42.130;24.746;2023-03-20T03:25:08;99874.69;;;4.09;100.00
8320;BME280;4197;42.130;24.746;2023-03-20T03:27:39;99876.38;;;4.05;100.00
8320;BME280;4197;42.130;24.746;2023-03-20T03:30:15;99876.78;;;3.98;100.00
8320;BME280;4197;42.130;24.746;2023-03-20T03:32:49;99876.09;;;3.92;100.00
8320;BME280;4197;42.130;24.746;2023-03-20T03:35:20;99876.97;;;3.88;100.00
8320;BME280;4197;42.130;24.746;2023-03-20T03:37:55;99872.22;;;3.85;100.00
8320;BME280;4197;42.130;24.746;2023-03-20T03:40:33;99869.44;;;3.90;100.00
8320;BME280;4197;42.130;24.746;2023-03-20T03:43:06;99873.41;;;3.92;100.00
8320;BME280;4197;42.130;24.746;2023-03-20T03:45:43;99875.81;;;3.94;100.00
8320;BME280;4197;42.130;24.746;2023-03-20T03:48:16;99872.91;;;3.90;100.00
8320;BME280;4197;42.130;24.746;2023-03-20T03:50:49;99881.03;;;3.85;100.00
8320;BME280;4197;42.130;24.746;2023-03-20T03:53:22;99876.28;;;3.82;100.00
8320;BME280;4197;42.130;24.746;2023-03-20T03:55:56;99882.56;;;3.77;100.00
8320;BME280;4197;42.130;24.746;2023-03-20T03:58:28;99878.78;;;3.78;100.00
8320;BME280;4197;42.130;24.746;2023-03-20T04:00:59;99882.84;;;3.76;100.00
8320;BME280;4197;42.130;24.746;2023-03-20T04:03:32;99882.84;;;3.76;100.00
8320;BME280;4197;42.130;24.746;2023-03-20T04:06:05;99879.56;;;3.79;100.00
8320;BME280;4197;42.130;24.746;2023-03-20T04:08:35;99883.34;;;3.78;100.00
8320;BME280;4197;42.130;24.746;2023-03-20T04:11:05;99883.72;;;3.71;100.00
8320;BME280;4197;42.130;24.746;2023-03-20T04:13:33;99889.28;;;3.61;100.00
8320;BME280;4197;42.130;24.746;2023-03-20T04:16:02;99884.91;;;3.51;100.00
8320;BME280;4197;42.130;24.746;2023-03-20T04:18:30;99877.16;;;3.50;100.00
8320;BME280;4197;42.130;24.746;2023-03-20T04:20:58;99880.13;;;3.48;100.00
8320;BME280;4197;42.130;24.746;2023-03-20T04:23:26;99881.50;;;3.46;100.00
8320;BME280;4197;42.130;24.746;2023-03-20T04:25:54;99883.72;;;3.44;100.00
8320;BME280;4197;42.130;24.746;2023-03-20T04:28:24;99874.47;;;3.36;100.00
8320;BME280;4197;42.130;24.746;2023-03-20T04:30:52;99877.13;;;3.36;100.00
8320;BME280;4197;42.130;24.746;2023-03-20T04:33:21;99875.06;;;3.33;100.00
8320;BME280;4197;42.130;24.746;2023-03-20T04:35:50;99879.47;;;3.24;100.00
8320;BME280;4197;42.130;24.746;2023-03-20T04:38:19;99876.81;;;3.24;100.00
8320;BME280;4197;42.130;24.746;2023-03-20T04:40:48;99882.75;;;3.21;100.00
8320;BME280;4197;42.130;24.746;2023-03-20T04:43:17;99880.06;;;3.21;100.00
8320;BME280;4197;42.130;24.746;2023-03-20T04:45:47;99881.16;;;3.20;100.00
8320;BME280;4197;42.130;24.746;2023-03-20T04:48:16;99883.84;;;3.20;100.00
8320;BME280;4197;42.130;24.746;2023-03-20T04:50:44;99877.09;;;3.22;100.00
8320;BME280;4197;42.130;24.746;2023-03-20T04:53:14;99893.38;;;3.26;100.00
8320;BME280;4197;42.130;24.746;2023-03-20T04:55:44;99886.56;;;3.33;100.00
8320;BME280;4197;42.130;24.746;2023-03-20T04:58:14;99883.28;;;3.37;100.00
8320;BME280;4197;42.130;24.746;2023-03-20T05:00:42;99895.81;;;3.41;100.00
8320;BME280;4197;42.130;24.746;2023-03-20T05:03:12;99896.03;;;3.45;100.00
8320;BME280;4197;42.130;24.746;2023-03-20T05:05:40;99897.00;;;3.49;100.00
8320;BME280;4197;42.130;24.746;2023-03-20T05:08:09;99893.97;;;3.55;100.00
8320;BME280;4197;42.130;24.746;2023-03-20T05:10:37;99885.59;;;3.57;100.00
8320;BME280;4197;42.130;24.746;2023-03-20T05:13:07;99893.88;;;3.61;100.00
8320;BME280;4197;42.130;24.746;2023-03-20T05:15:35;99892.38;;;3.68;100.00
8320;BME280;4197;42.130;24.746;2023-03-20T05:18:04;99889.31;;;3.75;100.00
8320;BME280;4197;42.130;24.746;2023-03-20T05:20:34;99898.06;;;3.80;100.00
8320;BME280;4197;42.130;24.746;2023-03-20T05:23:03;99897.66;;;3.87;100.00
8320;BME280;4197;42.130;24.746;2023-03-20T05:25:32;99896.34;;;3.98;100.00
8320;BME280;4197;42.130;24.746;2023-03-20T05:28:00;99892.47;;;4.05;100.00
8320;BME280;4197;42.130;24.746;2023-03-20T05:30:29;99894.66;;;4.16;100.00
8320;BME280;4197;42.130;24.746;2023-03-20T05:32:57;99892.44;;;4.32;100.00
8320;BME280;4197;42.130;24.746;2023-03-20T05:35:26;99891.25;;;4.38;100.00
8320;BME280;4197;42.130;24.746;2023-03-20T05:37:56;99900.69;;;4.50;100.00
8320;BME280;4197;42.130;24.746;2023-03-20T05:40:24;99895.06;;;4.60;100.00
8320;BME280;4197;42.130;24.746;2023-03-20T05:42:52;99893.44;;;4.73;100.00
8320;BME280;4197;42.130;24.746;2023-03-20T05:45:20;99893.84;;;4.80;100.00
8320;BME280;4197;42.130;24.746;2023-03-20T05:47:48;99896.59;;;4.88;100.00
8320;BME280;4197;42.130;24.746;2023-03-20T05:50:17;99896.03;;;5.00;100.00
8320;BME280;4197;42.130;24.746;2023-03-20T05:52:46;99887.47;;;4.98;100.00
8320;BME280;4197;42.130;24.746;2023-03-20T05:55:16;99889.38;;;4.98;100.00
8320;BME280;4197;42.130;24.746;2023-03-20T05:57:45;99892.91;;;5.07;100.00
8320;BME280;4197;42.130;24.746;2023-03-20T06:00:14;99897.53;;;5.15;100.00
8320;BME280;4197;42.130;24.746;2023-03-20T06:02:43;99888.63;;;5.28;100.00
8320;BME280;4197;42.130;24.746;2023-03-20T06:05:13;99895.53;;;5.21;100.00
8320;BME280;4197;42.130;24.746;2023-03-20T06:07:42;99902.31;;;5.41;100.00
8320;BME280;4197;42.130;24.746;2023-03-20T06:10:11;99899.19;;;5.47;100.00
8320;BME280;4197;42.130;24.746;2023-03-20T06:12:40;99893.34;;;5.54;100.00
8320;BME280;4197;42.130;24.746;2023-03-20T06:15:09;99891.94;;;5.56;100.00
8320;BME280;4197;42.130;24.746;2023-03-20T06:17:37;99897.72;;;5.72;100.00
8320;BME280;4197;42.130;24.746;2023-03-20T06:20:08;99896.31;;;5.75;100.00
8320;BME280;4197;42.130;24.746;2023-03-20T06:22:37;99894.91;;;5.86;100.00
8320;BME280;4197;42.130;24.746;2023-03-20T06:25:06;99893.47;;;6.20;100.00
8320;BME280;4197;42.130;24.746;2023-03-20T06:27:34;99884.94;;;6.35;100.00
8320;BME280;4197;42.130;24.746;2023-03-20T06:30:05;99892.72;;;6.45;100.00
8320;BME280;4197;42.130;24.746;2023-03-20T06:32:34;99888.94;;;6.55;99.89
8320;BME280;4197;42.130;24.746;2023-03-20T06:35:03;99888.00;;;6.68;98.65
8320;BME280;4197;42.130;24.746;2023-03-20T06:37:33;99886.22;;;6.73;98.29
8320;BME280;4197;42.130;24.746;2023-03-20T06:40:02;99886.72;;;6.66;98.52
8320;BME280;4197;42.130;24.746;2023-03-20T06:42:31;99888.13;;;6.89;97.50
8320;BME280;4197;42.130;24.746;2023-03-20T06:44:59;99879.59;;;6.96;97.04
8320;BME280;4197;42.130;24.746;2023-03-20T06:47:29;99880.66;;;7.12;95.01
8320;BME280;4197;42.130;24.746;2023-03-20T06:49:57;99880.47;;;7.18;95.53
8320;BME280;4197;42.130;24.746;2023-03-20T06:52:26;99873.03;;;7.32;94.62
8320;BME280;4197;42.130;24.746;2023-03-20T06:54:54;99882.78;;;7.45;92.84
8320;BME280;4197;42.130;24.746;2023-03-20T06:57:24;99882.31;;;7.52;91.90
8320;BME280;4197;42.130;24.746;2023-03-20T06:59:52;99886.66;;;7.82;88.57
8320;BME280;4197;42.130;24.746;2023-03-20T07:02:20;99881.75;;;7.76;87.84
8320;BME280;4197;42.130;24.746;2023-03-20T07:04:51;99877.59;;;7.87;88.44
8320;BME280;4197;42.130;24.746;2023-03-20T07:07:19;99883.91;;;7.91;87.36
8320;BME280;4197;42.130;24.746;2023-03-20T07:09:48;99887.25;;;7.88;86.92
8320;BME280;4197;42.130;24.746;2023-03-20T07:12:16;99886.69;;;8.03;87.13
8320;BME280;4197;42.130;24.746;2023-03-20T07:14:46;99882.00;;;8.21;85.39
8320;BME280;4197;42.130;24.746;2023-03-20T07:17:14;99885.13;;;8.32;84.71
8320;BME280;4197;42.130;24.746;2023-03-20T07:19:42;99884.63;;;8.39;85.35
8320;BME280;4197;42.130;24.746;2023-03-20T07:22:18;99894.84;;;8.54;84.81
8320;BME280;4197;42.130;24.746;2023-03-20T07:24:47;99889.84;;;8.65;83.23
8320;BME280;4197;42.130;24.746;2023-03-20T07:27:16;99875.88;;;8.63;82.53
8320;BME280;4197;42.130;24.746;2023-03-20T07:29:45;99880.25;;;8.88;81.13
8320;BME280;4197;42.130;24.746;2023-03-20T07:32:13;99872.63;;;8.90;81.42
8320;BME280;4197;42.130;24.746;2023-03-20T07:34:42;99867.59;;;9.01;81.18
8320;BME280;4197;42.130;24.746;2023-03-20T07:37:12;99877.09;;;9.20;80.51
8320;BME280;4197;42.130;24.746;2023-03-20T07:39:41;99866.31;;;9.32;80.75
8320;BME280;4197;42.130;24.746;2023-03-20T07:42:09;99862.22;;;9.59;83.08
8320;BME280;4197;42.130;24.746;2023-03-20T07:44:39;99863.34;;;9.82;78.18
8320;BME280;4197;42.130;24.746;2023-03-20T07:47:08;99862.88;;;9.80;76.23
8320;BME280;4197;42.130;24.746;2023-03-20T07:49:36;99864.47;;;9.81;76.68
8320;BME280;4197;42.130;24.746;2023-03-20T07:52:05;99868.19;;;9.89;75.48
8320;BME280;4197;42.130;24.746;2023-03-20T07:54:35;99867.31;;;9.73;74.88
8320;BME280;4197;42.130;24.746;2023-03-20T07:57:03;99870.13;;;9.76;75.39
8320;BME280;4197;42.130;24.746;2023-03-20T07:59:32;99869.31;;;9.88;74.65
8320;BME280;4197;42.130;24.746;2023-03-20T08:02:00;99859.41;;;9.92;74.65
8320;BME280;4197;42.130;24.746;2023-03-20T08:04:29;99851.72;;;10.07;74.34
8320;BME280;4197;42.130;24.746;2023-03-20T08:06:57;99862.88;;;10.05;72.88
8320;BME280;4197;42.130;24.746;2023-03-20T08:09:25;99852.28;;;10.12;73.00
8320;BME280;4197;42.130;24.746;2023-03-20T08:11:55;99847.19;;;10.35;71.34
8320;BME280;4197;42.130;24.746;2023-03-20T08:14:24;99856.28;;;10.55;70.68
8320;BME280;4197;42.130;24.746;2023-03-20T08:16:52;99846.19;;;10.68;69.96
8320;BME280;4197;42.130;24.746;2023-03-20T08:19:39;99845.44;;;10.83;69.27
8320;BME280;4197;42.130;24.746;2023-03-20T08:22:07;99846.72;;;11.02;67.19
8320;BME280;4197;42.130;24.746;2023-03-20T08:24:37;99850.72;;;10.92;67.28
8320;BME280;4197;42.130;24.746;2023-03-20T08:27:06;99842.84;;;10.87;67.62
8320;BME280;4197;42.130;24.746;2023-03-20T08:29:35;99847.78;;;11.13;66.90
8320;BME280;4197;42.130;24.746;2023-03-20T08:32:03;99845.34;;;11.24;66.57
8320;BME280;4197;42.130;24.746;2023-03-20T08:34:32;99850.81;;;11.39;65.69
8320;BME280;4197;42.130;24.746;2023-03-20T08:37:02;99852.22;;;11.49;65.47
8320;BME280;4197;42.130;24.746;2023-03-20T08:39:32;99848.00;;;11.68;63.79
8320;BME280;4197;42.130;24.746;2023-03-20T08:42:01;99847.03;;;11.76;64.25
8320;BME280;4197;42.130;24.746;2023-03-20T08:44:31;99844.44;;;11.95;63.82
8320;BME280;4197;42.130;24.746;2023-03-20T08:46:59;99846.59;;;12.05;63.78
8320;BME280;4197;42.130;24.746;2023-03-20T08:49:29;99842.84;;;12.30;61.79
8320;BME280;4197;42.130;24.746;2023-03-20T08:51:58;99844.06;;;11.97;63.77
8320;BME280;4197;42.130;24.746;2023-03-20T08:54:26;99830.41;;;11.93;64.12
8320;BME280;4197;42.130;24.746;2023-03-20T08:56:55;99828.63;;;11.85;62.79
8320;BME280;4197;42.130;24.746;2023-03-20T08:59:23;99830.56;;;11.84;63.80
8320;BME280;4197;42.130;24.746;2023-03-20T09:01:53;99823.81;;;11.78;64.39
8320;BME280;4197;42.130;24.746;2023-03-20T09:04:24;99822.66;;;12.11;63.29
8320;BME280;4197;42.130;24.746;2023-03-20T09:06:55;99817.88;;;12.43;62.27
8320;BME280;4197;42.130;24.746;2023-03-20T09:09:24;99817.94;;;12.66;62.16
8320;BME280;4197;42.130;24.746;2023-03-20T09:11:55;99818.81;;;12.70;62.42
8320;BME280;4197;42.130;24.746;2023-03-20T09:14:24;99812.94;;;12.88;61.70
8320;BME280;4197;42.130;24.746;2023-03-20T09:16:54;99812.84;;;13.04;61.13
8320;BME280;4197;42.130;24.746;2023-03-20T09:19:22;99812.78;;;13.00;61.16
8320;BME280;4197;42.130;24.746;2023-03-20T09:21:51;99818.81;;;13.32;59.02
8320;BME280;4197;42.130;24.746;2023-03-20T09:24:20;99801.81;;;13.39;58.76
8320;BME280;4197;42.130;24.746;2023-03-20T09:26:48;99811.31;;;13.49;57.00
8320;BME280;4197;42.130;24.746;2023-03-20T09:29:17;99810.59;;;13.29;58.12
8320;BME280;4197;42.130;24.746;2023-03-20T09:31:46;99805.66;;;13.15;58.54
8320;BME280;4197;42.130;24.746;2023-03-20T09:34:16;99796.91;;;13.25;58.39
8320;BME280;4197;42.130;24.746;2023-03-20T09:36:45;99802.69;;;13.47;57.68
8320;BME280;4197;42.130;24.746;2023-03-20T09:39:13;99800.63;;;13.63;57.06
8320;BME280;4197;42.130;24.746;2023-03-20T09:41:45;99790.59;;;13.67;57.01
8320;BME280;4197;42.130;24.746;2023-03-20T09:44:37;99794.88;;;13.68;58.08
8320;BME280;4197;42.130;24.746;2023-03-20T09:47:16;99792.03;;;13.88;58.24
8320;BME280;4197;42.130;24.746;2023-03-20T09:50:01;99777.06;;;14.01;56.90
8320;BME280;4197;42.130;24.746;2023-03-20T09:52:37;99771.44;;;14.17;56.61
8320;BME280;4197;42.130;24.746;2023-03-20T09:55:12;99769.22;;;14.29;56.28
8320;BME280;4197;42.130;24.746;2023-03-20T09:57:45;99769.19;;;14.26;56.83
8320;BME280;4197;42.130;24.746;2023-03-20T10:00:18;99765.81;;;14.36;55.22
8320;BME280;4197;42.130;24.746;2023-03-20T10:02:50;99759.94;;;14.34;55.92
8320;BME280;4197;42.130;24.746;2023-03-20T10:05:23;99753.88;;;14.48;55.62
8320;BME280;4197;42.130;24.746;2023-03-20T10:07:54;99754.94;;;14.70;54.87
8320;BME280;4197;42.130;24.746;2023-03-20T10:10:29;99752.03;;;14.93;54.07
8320;BME280;4197;42.130;24.746;2023-03-20T10:13:08;99747.53;;;14.74;54.70
8320;BME280;4197;42.130;24.746;2023-03-20T10:15:44;99744.66;;;14.97;53.84
8320;BME280;4197;42.130;24.746;2023-03-20T10:18:19;99736.34;;;14.83;53.55
8320;BME280;4197;42.130;24.746;2023-03-20T10:20:54;99731.28;;;14.85;54.44
8320;BME280;4197;42.130;24.746;2023-03-20T10:23:32;99734.41;;;14.87;54.13
8320;BME280;4197;42.130;24.746;2023-03-20T10:26:05;99726.78;;;15.03;53.54
8320;BME280;4197;42.130;24.746;2023-03-20T10:28:40;99724.25;;;15.28;53.51
8320;BME280;4197;42.130;24.746;2023-03-20T10:31:32;99727.22;;;15.60;51.71
8320;BME280;4197;42.130;24.746;2023-03-20T10:34:14;99726.56;;;15.81;51.03
8320;BME280;4197;42.130;24.746;2023-03-20T10:36:57;99715.97;;;15.69;51.65
8320;BME280;4197;42.130;24.746;2023-03-20T10:39:45;99706.28;;;15.86;50.98
8320;BME280;4197;42.130;24.746;2023-03-20T10:42:19;99704.16;;;15.61;51.68
8320;BME280;4197;42.130;24.746;2023-03-20T10:44:54;99699.06;;;15.56;51.33
8320;BME280;4197;42.130;24.746;2023-03-20T10:47:26;99691.38;;;15.73;51.39
8320;BME280;4197;42.130;24.746;2023-03-20T10:49:57;99684.84;;;15.95;50.29
8320;BME280;4197;42.130;24.746;2023-03-20T10:52:31;99673.94;;;16.02;49.62
8320;BME280;4197;42.130;24.746;2023-03-20T10:55:06;99675.13;;;16.09;49.34
8320;BME280;4197;42.130;24.746;2023-03-20T10:57:38;99666.81;;;15.83;49.54
8320;BME280;4197;42.130;24.746;2023-03-20T11:00:13;99666.03;;;15.83;49.25
8320;BME280;4197;42.130;24.746;2023-03-20T11:02:46;99668.41;;;15.88;49.26
8320;BME280;4197;42.130;24.746;2023-03-20T11:05:21;99654.03;;;16.05;48.55
8320;BME280;4197;42.130;24.746;2023-03-20T11:08:00;99654.84;;;16.13;48.86
8320;BME280;4197;42.130;24.746;2023-03-20T11:10:31;99651.63;;;15.93;49.44
8320;BME280;4197;42.130;24.746;2023-03-20T11:13:12;99642.34;;;16.23;48.32
8320;BME280;4197;42.130;24.746;2023-03-20T11:15:42;99643.50;;;16.18;46.30
8320;BME280;4197;42.130;24.746;2023-03-20T11:18:11;99642.72;;;16.18;46.04
8320;BME280;4197;42.130;24.746;2023-03-20T11:20:44;99627.09;;;16.22;45.80
8320;BME280;4197;42.130;24.746;2023-03-20T11:23:17;99625.97;;;16.44;45.49
8320;BME280;4197;42.130;24.746;2023-03-20T11:25:50;99618.50;;;16.34;45.52
8320;BME280;4197;42.130;24.746;2023-03-20T11:28:25;99620.09;;;16.53;45.28
8320;BME280;4197;42.130;24.746;2023-03-20T11:30:58;99609.56;;;16.66;44.55
8320;BME280;4197;42.130;24.746;2023-03-20T11:33:31;99609.19;;;16.78;45.74
8320;BME280;4197;42.130;24.746;2023-03-20T11:36:01;99595.88;;;16.98;45.39
8320;BME280;4197;42.130;24.746;2023-03-20T11:38:42;99597.81;;;17.15;45.06
8320;BME280;4197;42.130;24.746;2023-03-20T11:41:17;99584.88;;;17.27;43.54
8320;BME280;4197;42.130;24.746;2023-03-20T11:43:45;99583.69;;;17.21;43.19
8320;BME280;4197;42.130;24.746;2023-03-20T11:46:14;99583.31;;;17.15;43.62
8320;BME280;4197;42.130;24.746;2023-03-20T11:48:44;99571.53;;;17.29;43.01
8320;BME280;4197;42.130;24.746;2023-03-20T11:51:15;99574.28;;;17.36;43.15
8320;BME280;4197;42.130;24.746;2023-03-20T11:53:58;99561.38;;;17.29;43.07
8320;BME280;4197;42.130;24.746;2023-03-20T11:56:29;99564.13;;;17.22;43.33
8320;BME280;4197;42.130;24.746;2023-03-20T11:59:01;99558.69;;;17.04;43.63
8320;BME280;4197;42.130;24.746;2023-03-20T12:01:37;99555.50;;;17.31;43.55
8320;BME280;4197;42.130;24.746;2023-03-20T12:04:12;99553.84;;;17.48;43.76
8320;BME280;4197;42.130;24.746;2023-03-20T12:06:46;99547.50;;;17.69;42.53
8320;BME280;4197;42.130;24.746;2023-03-20T12:09:32;99540.91;;;17.55;42.49
8320;BME280;4197;42.130;24.746;2023-03-20T12:12:07;99539.75;;;17.49;42.31
8320;BME280;4197;42.130;24.746;2023-03-20T12:14:44;99543.56;;;17.70;42.15
8320;BME280;4197;42.130;24.746;2023-03-20T12:17:40;99536.59;;;17.58;42.33
8320;BME280;4197;42.130;24.746;2023-03-20T12:20:23;99533.88;;;17.54;41.87
8320;BME280;4197;42.130;24.746;2023-03-20T12:23:00;99527.47;;;17.86;42.18
8320;BME280;4197;42.130;24.746;2023-03-20T12:25:36;99530.88;;;18.01;42.41
8320;BME280;4197;42.130;24.746;2023-03-20T12:28:11;99527.84;;;18.44;42.08
8320;BME280;4197;42.130;24.746;2023-03-20T12:30:50;99527.44;;;18.42;40.83
8320;BME280;4197;42.130;24.746;2023-03-20T12:33:32;99523.41;;;18.05;41.44
8320;BME280;4197;42.130;24.746;2023-03-20T12:36:03;99514.78;;;18.10;41.24
8320;BME280;4197;42.130;24.746;2023-03-20T12:38:32;99520.50;;;18.30;41.01
8320;BME280;4197;42.130;24.746;2023-03-20T12:41:13;99507.84;;;18.40;40.93
8320;BME280;4197;42.130;24.746;2023-03-20T12:44:01;99517.09;;;18.60;40.05
8320;BME280;4197;42.130;24.746;2023-03-20T12:46:40;99503.75;;;18.59;39.95
8320;BME280;4197;42.130;24.746;2023-03-20T12:49:18;99502.47;;;18.70;39.52
8320;BME280;4197;42.130;24.746;2023-03-20T12:51:56;99504.78;;;18.79;39.46
8320;BME280;4197;42.130;24.746;2023-03-20T12:54:40;99502.72;;;18.87;39.03
8320;BME280;4197;42.130;24.746;2023-03-20T12:57:19;99499.53;;;18.96;38.57
8320;BME280;4197;42.130;24.746;2023-03-20T13:00:03;99494.47;;;18.90;38.81
8320;BME280;4197;42.130;24.746;2023-03-20T13:02:42;99495.41;;;18.77;38.17
8320;BME280;4197;42.130;24.746;2023-03-20T13:05:21;99497.22;;;18.87;38.45
8320;BME280;4197;42.130;24.746;2023-03-20T13:08:05;99491.00;;;18.83;38.14
8320;BME280;4197;42.130;24.746;2023-03-20T13:10:38;99480.53;;;18.67;38.54
8320;BME280;4197;42.130;24.746;2023-03-20T13:13:16;99473.53;;;19.00;38.00
8320;BME280;4197;42.130;24.746;2023-03-20T13:16:02;99478.53;;;19.12;37.86
8320;BME280;4197;42.130;24.746;2023-03-20T13:18:43;99472.03;;;18.96;38.32
8320;BME280;4197;42.130;24.746;2023-03-20T13:21:20;99470.72;;;19.07;38.28
8320;BME280;4197;42.130;24.746;2023-03-20T13:23:55;99462.25;;;19.25;37.55
8320;BME280;4197;42.130;24.746;2023-03-20T13:26:33;99470.81;;;19.31;37.00
8320;BME280;4197;42.130;24.746;2023-03-20T13:29:13;99466.16;;;19.28;36.89
8320;BME280;4197;42.130;24.746;2023-03-20T13:31:51;99465.59;;;19.09;37.38
8320;BME280;4197;42.130;24.746;2023-03-20T13:34:32;99464.78;;;19.12;37.53
8320;BME280;4197;42.130;24.746;2023-03-20T13:37:13;99453.81;;;19.09;37.01
8320;BME280;4197;42.130;24.746;2023-03-20T13:40:02;99457.94;;;19.24;36.94
8320;BME280;4197;42.130;24.746;2023-03-20T13:42:37;99458.03;;;19.48;36.27
8320;BME280;4197;42.130;24.746;2023-03-20T13:45:20;99448.16;;;19.50;36.26
8320;BME280;4197;42.130;24.746;2023-03-20T13:47:53;99441.00;;;19.56;36.58